Time;durP1;ratioP1;P1;durP2;ratioP2;P2;SDS_P1;SDS_P2;PMS_P1;PMS_P2;Temp;Humidity;BMP_temperature;BMP_pressure;BME280_temperature;BME280_humidity;BME280_pressure;Samples;Min_cycle;Max_cycle;Signal;HPM_P1;HPM_P2
2021/06/30 13:16:54;;;;;;;18.53;8.37;;;;;;;28.87;45.16;98160.09;125667;1093;101828;-70
2021/06/30 13:19:32;;;;;;;16.93;8.30;;;;;;;28.80;44.90;98147.42;125620;1093;103058;-70
2021/06/30 13:22:05;;;;;;;21.17;8.13;;;;;;;28.70;45.72;98141.80;125625;1093;103029;-71
2021/06/30 13:24:39;;;;;;;17.15;8.20;;;;;;;28.59;45.50;98148.20;125714;1093;103418;-71
2021/06/30 13:28:07;;;;;;;23.50;9.10;;;;;;;28.51;45.20;98153.02;125664;1093;102960;-69
2021/06/30 13:36:23;;;;;;;26.83;9.60;;;;;;;28.15;45.89;98163.42;125627;1093;103064;-71
2021/06/30 13:38:54;;;;;;;23.73;9.10;;;;;;;28.04;46.05;98169.76;125691;1092;103157;-70
2021/06/30 13:41:22;;;;;;;24.97;9.53;;;;;;;27.97;45.90;98182.75;125700;1093;103009;-71
2021/06/30 13:43:52;;;;;;;28.80;9.27;;;;;;;27.86;45.84;98179.02;125725;1093;103025;-70
2021/06/30 13:46:25;;;;;;;20.03;8.77;;;;;;;27.72;46.08;98192.16;125704;1093;103107;-70
2021/06/30 13:48:56;;;;;;;17.97;9.10;;;;;;;27.63;46.07;98194.48;125640;1093;103060;-70
2021/06/30 13:51:25;;;;;;;18.27;9.40;;;;;;;27.60;46.35;98197.69;125707;1093;102940;-70
2021/06/30 13:53:53;;;;;;;23.30;9.87;;;;;;;27.55;46.37;98205.78;125709;1092;102962;-70
2021/06/30 13:56:23;;;;;;;20.77;10.07;;;;;;;27.51;46.24;98212.80;125735;1093;103023;-70
2021/06/30 13:58:58;;;;;;;20.27;8.93;;;;;;;27.45;46.69;98209.94;125684;1092;102946;-70
2021/06/30 14:01:29;;;;;;;23.50;10.20;;;;;;;27.42;46.84;98218.61;125696;1093;102816;-71
2021/06/30 14:04:02;;;;;;;22.43;9.60;;;;;;;27.36;47.05;98218.77;125706;1092;103006;-70
2021/06/30 14:06:34;;;;;;;26.20;9.30;;;;;;;27.30;47.07;98213.20;125663;1092;103007;-70
2021/06/30 14:09:04;;;;;;;28.43;9.67;;;;;;;27.25;47.19;98215.82;125725;1093;103126;-70
2021/06/30 14:11:33;;;;;;;36.17;10.20;;;;;;;27.18;47.06;98223.30;125678;1093;103088;-70
2021/06/30 14:14:02;;;;;;;28.70;10.17;;;;;;;27.12;47.14;98221.53;125655;1092;103061;-70
2021/06/30 14:16:30;;;;;;;25.33;9.40;;;;;;;27.08;47.36;98214.92;125710;1092;102947;-69
2021/06/30 14:18:59;;;;;;;27.50;10.47;;;;;;;27.00;47.49;98218.84;125577;1092;103050;-69
2021/06/30 14:21:28;;;;;;;23.20;9.67;;;;;;;26.93;47.45;98216.25;125552;1092;103437;-70
2021/06/30 14:23:57;;;;;;;24.77;9.97;;;;;;;26.86;47.78;98230.02;125689;1092;102909;-71
2021/06/30 14:26:25;;;;;;;16.37;8.83;;;;;;;26.80;47.71;98238.28;126344;1093;102934;-71
2021/06/30 14:28:54;;;;;;;27.97;10.13;;;;;;;26.78;47.63;98254.05;125682;1092;102920;-70
2021/06/30 14:31:26;;;;;;;;;;;;;;;26.71;48.16;98248.73;125709;1092;103013;-70
2021/06/30 14:33:54;;;;;;;24.17;8.67;;;;;;;26.67;48.15;98255.72;125729;1093;103416;-70
2021/06/30 14:36:23;;;;;;;21.63;9.43;;;;;;;26.64;48.33;98259.77;125722;1093;102991;-71
2021/06/30 14:38:51;;;;;;;16.23;8.80;;;;;;;26.60;48.12;98264.84;125656;1093;103080;-70
2021/06/30 14:41:25;;;;;;;18.97;9.27;;;;;;;26.54;48.39;98263.05;125743;1093;103376;-68
2021/06/30 14:43:53;;;;;;;18.13;9.13;;;;;;;26.50;48.55;98275.49;125774;1092;103012;-69
2021/06/30 14:46:21;;;;;;;18.80;10.07;;;;;;;26.47;48.66;98272.42;125761;1093;102988;-69
2021/06/30 14:48:50;;;;;;;21.80;10.50;;;;;;;26.44;48.72;98271.82;125688;1093;103138;-70
2021/06/30 14:51:18;;;;;;;23.83;11.27;;;;;;;26.39;48.54;98266.23;125672;1093;103159;-69
2021/06/30 14:53:47;;;;;;;18.80;9.80;;;;;;;26.34;48.71;98257.93;125579;1092;102933;-74
2021/06/30 14:56:15;;;;;;;19.47;9.70;;;;;;;26.29;49.06;98250.47;125580;1092;102946;-75
2021/06/30 14:58:44;;;;;;;21.47;9.27;;;;;;;26.30;49.25;98243.95;125689;1093;102997;-75
2021/06/30 15:01:16;;;;;;;19.60;9.65;;;;;;;26.31;48.93;98255.67;125764;1093;102918;-75
2021/06/30 15:03:45;;;;;;;19.23;8.90;;;;;;;26.31;49.07;98242.04;125499;1093;102881;-75
2021/06/30 15:06:16;;;;;;;21.83;9.13;;;;;;;26.30;49.20;98245.83;125656;1093;102908;-74
2021/06/30 15:08:45;;;;;;;17.93;9.40;;;;;;;26.28;49.28;98234.36;125607;1092;103028;-73
2021/06/30 15:11:15;;;;;;;18.27;9.03;;;;;;;26.28;49.31;98220.73;125704;1093;103038;-73
2021/06/30 15:13:43;;;;;;;23.30;9.60;;;;;;;26.25;49.42;98219.29;125569;1093;103049;-70
2021/06/30 15:16:11;;;;;;;20.70;10.17;;;;;;;26.24;49.60;98208.64;125675;1093;102913;-72
2021/06/30 15:18:45;;;;;;;21.95;10.90;;;;;;;26.27;49.91;98194.55;125726;1092;102914;-73
2021/06/30 15:21:19;;;;;;;22.70;11.33;;;;;;;26.30;49.94;98191.31;125608;1093;103141;-71
2021/06/30 16:02:39;;;;;;;22.83;9.40;;;;;;;26.00;51.12;98100.41;125767;1087;103028;-73
2021/06/30 16:05:10;;;;;;;21.40;8.70;;;;;;;26.00;51.22;98107.74;125608;1093;102997;-74
2021/06/30 16:07:40;;;;;;;19.10;8.80;;;;;;;26.00;51.29;98124.94;125680;1092;103112;-75
2021/06/30 16:10:12;;;;;;;22.60;10.23;;;;;;;26.02;51.30;98135.58;125716;1093;102995;-74
2021/06/30 16:12:41;;;;;;;19.70;9.23;;;;;;;26.05;51.27;98134.30;125713;1093;102913;-74
2021/06/30 16:15:15;;;;;;;22.83;8.93;;;;;;;26.05;51.10;98126.13;125666;1093;102994;-88
2021/06/30 16:18:01;;;;;;;20.57;8.73;;;;;;;26.01;51.33;98121.14;125564;1093;102940;-73
2021/06/30 16:20:30;;;;;;;25.75;12.65;;;;;;;25.96;51.35;98131.07;125656;1092;103084;-78
2021/06/30 16:23:01;;;;;;;22.27;13.03;;;;;;;25.68;51.62;98117.05;125529;1093;102935;-76
2021/06/30 16:25:35;;;;;;;21.67;12.57;;;;;;;25.45;52.05;98125.16;125523;1093;103430;-76
2021/06/30 16:28:05;;;;;;;26.53;13.57;;;;;;;25.36;51.88;98124.64;125556;1093;102996;-82
2021/06/30 16:30:38;;;;;;;24.43;12.93;;;;;;;25.35;52.36;98139.30;125808;1093;103124;-79
2021/06/30 16:33:12;;;;;;;23.10;13.13;;;;;;;25.35;52.72;98139.30;125668;1093;103104;-85
2021/06/30 16:35:42;;;;;;;21.27;11.17;;;;;;;25.41;52.64;98122.87;125824;1093;103061;-86
2021/06/30 16:38:10;;;;;;;22.40;10.17;;;;;;;25.48;52.91;98116.53;125812;1092;102909;-86
2021/06/30 16:40:41;;;;;;;21.50;9.70;;;;;;;25.53;52.82;98125.66;125779;1093;102930;-88
2021/06/30 16:43:10;;;;;;;20.47;10.80;;;;;;;25.58;52.88;98127.70;125813;1093;103467;-84
2021/06/30 16:45:39;;;;;;;19.10;9.70;;;;;;;25.64;52.57;98134.94;125818;1092;102912;-83
2021/06/30 16:48:09;;;;;;;20.97;9.00;;;;;;;25.69;52.91;98135.05;125753;1093;103172;-83
2021/06/30 16:50:41;;;;;;;18.67;9.77;;;;;;;25.73;53.11;98134.58;125804;1093;102956;-88
2021/06/30 16:53:09;;;;;;;22.43;11.67;;;;;;;25.71;53.04;98138.36;125889;1093;103029;-82
2021/06/30 16:55:39;;;;;;;20.80;11.43;;;;;;;25.66;53.09;98135.54;125902;1093;102991;-85
2021/06/30 16:58:08;;;;;;;21.30;11.73;;;;;;;25.67;53.29;98137.20;125643;1093;102914;-84
2021/06/30 17:00:39;;;;;;;21.53;12.17;;;;;;;25.69;53.11;98142.40;125974;1093;103084;-82
2021/06/30 17:03:08;;;;;;;20.53;11.40;;;;;;;25.73;53.81;98143.59;125891;1093;102978;-83
2021/06/30 17:05:36;;;;;;;20.73;10.80;;;;;;;25.77;53.56;98152.11;125950;1093;102991;-81
2021/06/30 17:08:07;;;;;;;22.70;11.23;;;;;;;25.79;53.67;98155.44;125590;1093;102917;-83
2021/06/30 17:10:36;;;;;;;22.50;10.37;;;;;;;25.78;53.89;98154.63;125934;1092;102951;-80
2021/06/30 17:13:05;;;;;;;20.77;10.70;;;;;;;25.77;53.84;98155.69;125711;1091;103676;-78
2021/06/30 17:15:33;;;;;;;19.17;9.87;;;;;;;25.81;54.19;98166.93;125536;1092;102940;-83
2021/06/30 17:18:02;;;;;;;21.43;9.93;;;;;;;25.83;54.26;98160.20;126098;1093;103540;-81
2021/06/30 17:20:31;;;;;;;23.57;10.77;;;;;;;25.85;54.05;98166.25;125592;1093;103029;-86
2021/06/30 17:22:59;;;;;;;20.57;10.40;;;;;;;25.86;54.16;98165.19;125994;1093;103129;-84
2021/06/30 17:25:28;;;;;;;18.47;8.80;;;;;;;25.85;53.77;98168.13;125650;1093;102918;-85
2021/06/30 17:27:57;;;;;;;17.67;8.83;;;;;;;25.86;54.19;98181.53;126018;1093;103034;-85
2021/06/30 17:30:25;;;;;;;20.43;8.80;;;;;;;25.83;54.07;98162.93;125969;1093;103005;-80
2021/06/30 17:32:57;;;;;;;18.40;8.47;;;;;;;25.81;54.27;98167.78;125638;1093;103024;-83
2021/06/30 17:35:30;;;;;;;14.80;8.03;;;;;;;25.78;54.21;98170.12;125648;1092;103094;-82
2021/06/30 17:38:01;;;;;;;16.27;8.30;;;;;;;25.76;54.27;98170.36;125646;1092;102952;-84
2021/06/30 17:40:33;;;;;;;20.60;8.70;;;;;;;25.75;54.06;98171.42;125627;1093;102997;-66
2021/06/30 17:43:02;;;;;;;19.03;9.07;;;;;;;25.72;54.18;98177.34;125643;1093;102945;-68
2021/06/30 17:45:33;;;;;;;17.20;8.97;;;;;;;25.73;54.04;98184.45;125722;1092;102988;-67
2021/06/30 17:48:04;;;;;;;18.13;8.57;;;;;;;25.71;54.61;98178.40;125669;1093;102930;-69
2021/06/30 17:50:36;;;;;;;16.10;8.57;;;;;;;25.69;54.48;98180.52;125736;1092;102948;-68
2021/06/30 17:53:04;;;;;;;19.47;9.57;;;;;;;25.59;54.65;98186.53;125704;1092;102991;-68
2021/06/30 17:55:35;;;;;;;18.23;9.60;;;;;;;25.52;54.42;98191.23;125632;1093;102987;-67
2021/06/30 17:58:05;;;;;;;21.17;10.60;;;;;;;25.39;54.56;98193.03;125635;1093;103058;-68
2021/06/30 18:00:36;;;;;;;23.30;10.37;;;;;;;25.30;54.87;98194.41;125605;1093;102941;-69
2021/06/30 18:03:06;;;;;;;21.20;11.20;;;;;;;25.23;54.65;98189.06;125651;1093;103012;-70
2021/06/30 18:05:35;;;;;;;23.77;11.10;;;;;;;25.12;54.52;98184.38;125688;1093;102929;-72
2021/06/30 18:08:04;;;;;;;21.10;10.87;;;;;;;25.02;55.06;98187.64;125680;1092;103511;-68
2021/06/30 18:10:33;;;;;;;20.17;11.13;;;;;;;24.93;55.11;98194.44;125698;1093;103061;-67
2021/06/30 18:13:06;;;;;;;21.57;10.47;;;;;;;24.86;55.29;98197.23;125644;1093;103051;-70
2021/06/30 18:15:35;;;;;;;20.77;11.47;;;;;;;24.77;55.40;98204.02;125585;1093;102913;-68
2021/06/30 18:18:04;;;;;;;20.97;11.00;;;;;;;24.74;55.46;98201.75;125676;1092;103088;-70
2021/06/30 18:20:37;;;;;;;19.63;11.50;;;;;;;24.74;55.91;98204.47;125684;1093;103009;-69
2021/06/30 18:23:07;;;;;;;23.10;12.05;;;;;;;24.73;56.06;98205.53;125660;1093;103065;-68
2021/06/30 18:25:36;;;;;;;20.33;12.23;;;;;;;24.71;55.94;98213.05;125635;1093;102937;-68
2021/06/30 18:28:05;;;;;;;21.90;11.60;;;;;;;24.71;56.01;98213.89;125586;1093;103086;-69
2021/06/30 18:30:34;;;;;;;20.00;11.10;;;;;;;24.71;55.85;98205.73;125667;1092;102942;-68
2021/06/30 18:33:02;;;;;;;21.23;12.17;;;;;;;24.73;56.46;98208.25;125651;1093;102979;-70
2021/06/30 18:35:34;;;;;;;22.90;12.40;;;;;;;24.76;56.34;98213.23;125727;1092;102938;-69
2021/06/30 18:38:05;;;;;;;21.20;11.93;;;;;;;24.79;56.68;98216.36;125653;1093;102970;-69
2021/06/30 18:40:37;;;;;;;22.60;12.23;;;;;;;24.81;56.71;98218.84;125616;1093;102938;-69
2021/06/30 18:43:07;;;;;;;20.60;12.20;;;;;;;24.80;56.67;98220.73;125662;1091;102938;-70
2021/06/30 18:45:35;;;;;;;20.77;12.33;;;;;;;24.77;56.89;98218.47;125707;1093;102954;-71
2021/06/30 18:48:10;;;;;;;21.43;12.37;;;;;;;24.74;56.95;98218.06;125648;1093;103127;-72
2021/06/30 18:50:43;;;;;;;19.60;11.63;;;;;;;24.66;56.44;98225.42;125671;1093;102907;-70
2021/06/30 18:53:12;;;;;;;20.07;12.10;;;;;;;24.62;57.09;98226.95;125643;1093;103052;-72
2021/06/30 18:55:40;;;;;;;24.40;13.17;;;;;;;24.57;57.18;98226.79;125663;1093;103009;-72
2021/06/30 18:58:30;;;;;;;20.37;12.03;;;;;;;24.53;57.24;98234.54;125434;1091;102997;-68
2021/06/30 19:01:00;;;;;;;26.70;13.40;;;;;;;24.46;56.95;98239.20;125588;1093;102995;-69
2021/06/30 19:03:30;;;;;;;22.93;12.73;;;;;;;24.42;57.45;98242.59;125548;1093;102979;-70
2021/06/30 19:06:00;;;;;;;23.70;12.07;;;;;;;24.41;57.52;98249.08;125463;1091;103342;-68
2021/06/30 19:08:30;;;;;;;21.47;12.27;;;;;;;24.37;57.03;98249.52;125624;1093;103416;-68
2021/06/30 19:11:01;;;;;;;22.57;13.10;;;;;;;24.34;57.22;98260.83;125578;1093;103077;-67
2021/06/30 19:13:30;;;;;;;24.13;13.17;;;;;;;24.28;57.17;98259.00;125509;1093;103009;-69
2021/06/30 19:15:59;;;;;;;21.83;13.23;;;;;;;24.23;57.79;98259.67;125600;1093;103432;-69
2021/06/30 19:18:28;;;;;;;21.50;13.20;;;;;;;24.21;57.45;98256.34;125585;1093;102927;-71
2021/06/30 19:20:57;;;;;;;24.07;13.93;;;;;;;24.22;58.02;98257.19;125655;1093;103020;-69
2021/06/30 19:23:25;;;;;;;22.77;13.43;;;;;;;24.23;57.79;98250.70;125684;1093;102934;-68
2021/06/30 19:25:53;;;;;;;30.73;18.10;;;;;;;24.21;57.71;98250.09;125697;1093;102934;-69
2021/06/30 19:28:24;;;;;;;25.00;13.60;;;;;;;24.17;58.22;98244.25;125634;1093;102926;-69
2021/06/30 19:30:53;;;;;;;23.73;13.17;;;;;;;24.15;58.07;98245.53;125606;1093;103060;-67
2021/06/30 19:33:25;;;;;;;20.98;13.25;;;;;;;24.14;58.07;98241.97;125669;1092;103011;-72
2021/06/30 19:35:54;;;;;;;23.23;13.20;;;;;;;24.13;58.18;98236.77;125613;1092;103043;-72
2021/06/30 19:38:22;;;;;;;21.87;14.07;;;;;;;24.08;57.89;98245.55;125705;1093;102907;-71
2021/06/30 19:40:51;;;;;;;24.20;14.90;;;;;;;24.07;58.42;98249.33;125663;1093;103020;-68
2021/06/30 19:43:19;;;;;;;26.10;14.50;;;;;;;24.03;58.03;98245.41;125562;1093;103006;-70
2021/06/30 19:45:48;;;;;;;24.63;14.37;;;;;;;23.97;58.13;98251.69;125629;1092;102939;-71
2021/06/30 19:48:17;;;;;;;27.33;15.03;;;;;;;23.90;58.50;98240.84;125731;1092;102929;-72
2021/06/30 19:50:47;;;;;;;23.53;14.10;;;;;;;23.79;58.12;98245.09;125719;1093;102910;-71
2021/06/30 19:53:16;;;;;;;25.47;15.33;;;;;;;23.69;58.31;98248.29;125706;1092;103374;-70
2021/06/30 19:55:44;;;;;;;25.00;13.67;;;;;;;23.62;58.29;98248.33;125676;1092;103066;-70
2021/06/30 19:58:13;;;;;;;22.70;15.03;;;;;;;23.40;58.13;98242.38;125733;1092;103065;-71
2021/06/30 20:00:41;;;;;;;23.15;13.70;;;;;;;23.17;58.15;98243.67;125682;1092;102940;-70
2021/06/30 20:03:10;;;;;;;24.07;14.40;;;;;;;23.02;58.71;98243.11;125658;1093;102991;-71
2021/06/30 20:05:38;;;;;;;23.03;13.73;;;;;;;22.95;58.69;98250.42;126949;1093;102988;-70
2021/06/30 20:08:08;;;;;;;22.47;14.40;;;;;;;22.88;59.11;98240.42;125725;1092;101845;-70
2021/06/30 20:10:37;;;;;;;24.83;14.97;;;;;;;22.84;59.11;98241.88;125698;1093;102939;-69
2021/06/30 20:13:06;;;;;;;22.90;13.85;;;;;;;22.79;59.49;98251.70;125920;1092;103016;-70
2021/06/30 20:15:35;;;;;;;25.10;14.27;;;;;;;22.75;59.51;98243.14;125737;1093;103090;-71
2021/06/30 20:18:05;;;;;;;22.57;13.97;;;;;;;22.71;59.12;98250.03;125708;1093;103191;-76
2021/06/30 20:20:35;;;;;;;26.47;15.43;;;;;;;22.58;59.05;98246.31;125661;1093;103437;-74
2021/06/30 20:23:03;;;;;;;26.23;15.77;;;;;;;22.51;59.61;98274.44;125681;1092;102999;-74
2021/06/30 20:25:32;;;;;;;23.63;15.20;;;;;;;22.42;59.69;98268.37;125666;1093;102984;-74
2021/06/30 20:28:00;;;;;;;25.47;16.00;;;;;;;22.35;59.23;98281.07;125687;1093;103057;-74
2021/06/30 20:30:29;;;;;;;27.43;16.17;;;;;;;22.31;60.09;98286.90;125697;1092;103098;-74
2021/06/30 20:32:59;;;;;;;28.53;16.87;;;;;;;22.28;60.15;98297.33;125645;1093;103028;-74
2021/06/30 20:35:28;;;;;;;26.77;18.07;;;;;;;22.25;60.46;98298.55;125713;1093;102932;-73
2021/06/30 20:37:56;;;;;;;24.47;16.93;;;;;;;22.25;60.61;98297.73;125664;1093;102991;-73
2021/06/30 20:40:24;;;;;;;27.00;17.30;;;;;;;22.28;60.75;98297.33;125717;1092;102929;-75
2021/06/30 20:42:53;;;;;;;25.73;16.77;;;;;;;22.29;60.85;98296.29;125711;1093;103055;-72
2021/06/30 20:45:26;;;;;;;26.37;18.27;;;;;;;22.29;60.67;98301.70;125709;1093;103205;-73
2021/06/30 20:47:55;;;;;;;26.95;17.30;;;;;;;22.28;61.08;98300.85;125694;1093;102884;-73
2021/06/30 20:50:24;;;;;;;26.37;17.53;;;;;;;22.27;61.31;98315.44;125699;1093;103118;-74
2021/06/30 20:52:52;;;;;;;26.07;16.87;;;;;;;22.24;61.22;98310.43;125748;1092;103428;-74
2021/06/30 20:55:20;;;;;;;26.13;18.60;;;;;;;22.23;61.35;98314.18;125690;1093;103094;-73
2021/06/30 20:57:49;;;;;;;28.13;17.27;;;;;;;22.24;61.56;98320.45;125648;1093;103447;-73
2021/06/30 21:00:17;;;;;;;40.10;32.20;;;;;;;22.24;61.49;98318.55;125666;1093;103338;-76
2021/06/30 21:02:47;;;;;;;27.57;19.93;;;;;;;22.22;61.41;98315.22;125680;1094;103490;-74
2021/06/30 21:05:18;;;;;;;24.63;17.20;;;;;;;22.22;61.93;98307.09;125697;1093;103007;-74
2021/06/30 21:07:48;;;;;;;24.57;17.10;;;;;;;22.25;61.67;98303.97;125726;1093;102991;-73
2021/06/30 21:10:17;;;;;;;25.43;17.40;;;;;;;22.28;61.65;98308.98;125662;1093;103076;-74
2021/06/30 21:12:46;;;;;;;25.83;17.33;;;;;;;22.31;62.14;98299.63;125651;1092;102929;-75
2021/06/30 21:15:14;;;;;;;24.23;15.83;;;;;;;22.32;61.83;98304.00;125723;1093;102915;-74
2021/06/30 21:17:43;;;;;;;24.40;17.30;;;;;;;22.29;62.38;98299.81;125681;1093;102981;-74
2021/06/30 21:20:14;;;;;;;26.40;16.13;;;;;;;22.23;62.23;98300.64;125691;1093;103451;-73
2021/06/30 21:22:45;;;;;;;25.83;16.43;;;;;;;22.19;62.14;98301.27;125677;1093;103202;-72
2021/06/30 21:25:15;;;;;;;25.33;16.03;;;;;;;22.15;62.52;98298.97;125657;1093;103105;-73
2021/06/30 21:27:44;;;;;;;25.83;17.20;;;;;;;22.12;62.13;98295.85;125652;1093;102945;-73
2021/06/30 21:30:14;;;;;;;25.57;16.10;;;;;;;22.07;62.21;98301.05;125681;1092;102942;-72
2021/06/30 21:32:43;;;;;;;22.80;13.73;;;;;;;22.03;62.27;98308.72;125653;1091;103021;-73
2021/06/30 21:35:12;;;;;;;24.63;15.13;;;;;;;21.96;62.31;98295.18;125564;1091;103070;-72
2021/06/30 21:37:42;;;;;;;24.20;15.93;;;;;;;21.94;62.68;98299.14;125701;1093;103030;-72
2021/06/30 21:40:12;;;;;;;25.57;15.63;;;;;;;21.92;62.37;98293.09;125671;1093;102935;-73
2021/06/30 21:42:43;;;;;;;24.57;15.53;;;;;;;21.86;62.60;98276.63;125661;1092;103505;-73
2021/06/30 21:45:11;;;;;;;25.50;15.63;;;;;;;21.83;63.04;98271.63;125661;1092;102927;-75
2021/06/30 21:47:39;;;;;;;26.15;17.05;;;;;;;21.80;62.55;98274.73;125631;1095;103015;-72
2021/06/30 21:50:11;;;;;;;24.13;15.27;;;;;;;21.79;63.22;98258.71;125692;1092;102936;-72
2021/06/30 21:52:40;;;;;;;23.00;14.70;;;;;;;21.78;62.90;98243.52;125617;1093;102936;-72
2021/06/30 21:55:08;;;;;;;23.77;14.20;;;;;;;21.78;63.04;98238.91;125648;1093;103084;-72
2021/06/30 21:57:38;;;;;;;22.10;13.43;;;;;;;21.77;63.16;98241.84;125622;1093;103004;-71
2021/06/30 22:00:20;;;;;;;21.95;13.75;;;;;;;21.78;63.40;98238.91;125664;1093;103345;-74
2021/06/30 22:02:50;;;;;;;25.47;13.33;;;;;;;21.76;63.52;98227.45;125738;1092;102919;-73
2021/06/30 22:05:20;;;;;;;23.83;13.40;;;;;;;21.76;63.30;98232.88;125621;1093;103370;-75
2021/06/30 22:07:48;;;;;;;24.40;13.60;;;;;;;21.74;63.34;98228.72;125645;1093;102939;-72
2021/06/30 22:10:18;;;;;;;24.50;13.70;;;;;;;21.74;63.36;98232.24;125644;1092;103003;-71
2021/06/30 22:12:53;;;;;;;26.30;13.03;;;;;;;21.76;63.55;98229.34;125763;1092;102990;-73
2021/06/30 22:15:21;;;;;;;20.60;12.60;;;;;;;21.76;63.18;98240.17;125604;1093;103425;-72
2021/06/30 22:17:51;;;;;;;22.65;12.20;;;;;;;21.76;63.49;98232.05;125541;1093;103007;-71
2021/06/30 22:20:20;;;;;;;22.63;12.37;;;;;;;21.76;63.66;98254.52;125525;1093;103097;-72
2021/06/30 22:25:18;;;;;;;20.43;10.60;;;;;;;21.70;63.78;98267.02;125661;1093;103165;-75
2021/06/30 22:27:48;;;;;;;18.60;9.47;;;;;;;21.68;63.31;98268.23;125688;1093;102948;-74
2021/06/30 22:30:17;;;;;;;17.33;9.40;;;;;;;21.65;63.65;98260.52;125629;1093;102938;-75
2021/06/30 22:32:46;;;;;;;18.40;9.93;;;;;;;21.64;63.62;98258.85;125753;1093;103023;-74
2021/06/30 22:35:15;;;;;;;15.77;7.67;;;;;;;21.58;63.78;98259.66;125675;1093;102901;-74
2021/06/30 22:37:43;;;;;;;14.03;7.33;;;;;;;21.56;63.66;98262.55;125690;1092;103415;-74
2021/06/30 22:40:16;;;;;;;18.70;7.80;;;;;;;21.53;63.57;98260.25;125664;1093;102984;-74
2021/06/30 22:42:45;;;;;;;13.60;7.07;;;;;;;21.53;63.73;98252.98;125676;1093;102994;-75
2021/06/30 22:45:15;;;;;;;17.20;7.20;;;;;;;21.51;63.90;98256.91;125659;1093;103419;-73
2021/06/30 22:47:43;;;;;;;15.60;7.67;;;;;;;21.47;63.51;98253.78;125674;1093;102994;-73
2021/06/30 22:50:14;;;;;;;16.70;7.70;;;;;;;21.47;63.33;98250.23;125692;1092;103174;-73
2021/06/30 22:52:43;;;;;;;16.40;7.30;;;;;;;21.42;63.68;98248.96;125749;1093;103061;-73
2021/06/30 22:55:14;;;;;;;14.90;6.63;;;;;;;21.39;63.51;98241.28;125642;1093;103443;-74
2021/06/30 22:57:45;;;;;;;16.10;7.00;;;;;;;21.38;63.67;98239.61;125651;1092;103111;-73
2021/06/30 23:00:17;;;;;;;13.13;6.50;;;;;;;21.36;64.09;98240.83;125672;1093;102978;-73
2021/06/30 23:02:49;;;;;;;14.68;6.18;;;;;;;21.34;63.59;98240.20;125698;1092;102938;-73
2021/06/30 23:05:19;;;;;;;15.43;7.10;;;;;;;21.31;63.79;98241.45;125734;1093;103527;-73
2021/06/30 23:07:49;;;;;;;14.13;6.77;;;;;;;21.29;63.79;98237.26;125585;1093;103021;-74
2021/06/30 23:10:20;;;;;;;12.00;5.80;;;;;;;21.29;63.72;98245.38;125645;1093;102916;-74
2021/06/30 23:12:48;;;;;;;16.83;6.60;;;;;;;21.26;63.83;98235.81;125652;1093;103540;-73
2021/06/30 23:15:17;;;;;;;13.87;6.97;;;;;;;21.27;63.74;98245.59;125641;1092;103030;-73
2021/06/30 23:17:45;;;;;;;16.40;6.70;;;;;;;21.26;63.71;98242.03;125696;1093;102994;-71
2021/06/30 23:20:18;;;;;;;12.93;6.97;;;;;;;21.25;63.96;98244.95;125653;1093;102994;-73
2021/06/30 23:22:47;;;;;;;16.70;6.93;;;;;;;21.24;63.65;98248.69;125682;1093;103090;-72
2021/06/30 23:25:17;;;;;;;16.57;6.33;;;;;;;21.22;63.87;98245.36;125696;1093;103525;-72
2021/06/30 23:27:48;;;;;;;14.73;6.83;;;;;;;21.19;63.79;98251.16;125646;1092;103067;-73
2021/06/30 23:30:16;;;;;;;15.53;6.73;;;;;;;21.18;64.23;98244.94;125630;1092;103096;-72
2021/06/30 23:32:46;;;;;;;17.50;7.20;;;;;;;21.15;64.24;98250.74;125654;1093;103361;-72
2021/06/30 23:35:15;;;;;;;16.47;7.27;;;;;;;21.13;64.19;98255.52;125677;1093;102933;-73
2021/06/30 23:37:43;;;;;;;14.67;6.37;;;;;;;21.09;63.67;98256.94;125683;1092;103084;-73
2021/06/30 23:40:13;;;;;;;17.00;7.73;;;;;;;21.04;64.02;98249.41;125697;1093;103000;-74
2021/06/30 23:42:41;;;;;;;16.97;7.20;;;;;;;21.02;63.94;98237.14;125695;1093;102909;-72
2021/06/30 23:45:12;;;;;;;15.23;6.90;;;;;;;20.99;63.99;98242.95;125642;1091;102910;-73
2021/06/30 23:47:40;;;;;;;14.40;7.17;;;;;;;20.95;63.93;98247.92;125700;1093;102935;-73
2021/06/30 23:50:12;;;;;;;14.37;6.73;;;;;;;20.93;63.98;98250.00;125679;1093;103022;-74
2021/06/30 23:52:40;;;;;;;15.73;6.93;;;;;;;20.91;64.10;98243.95;125640;1092;103079;-73
2021/06/30 23:55:11;;;;;;;13.27;6.80;;;;;;;20.87;64.16;98240.79;125680;1092;103441;-73
2021/06/30 23:57:39;;;;;;;11.77;6.83;;;;;;;20.86;64.24;98239.13;125639;1093;103020;-73
